sensor_id;sensor_type;location;lat;lon;timestamp;temperature;humidity
68609;SHT31;55581;46.718;7.690;2023-02-28T00:01:41;0.44;74.93
68609;SHT31;55581;46.718;7.690;2023-02-28T00:04:07;0.53;74.09
68609;SHT31;55581;46.718;7.690;2023-02-28T00:06:34;0.47;74.12
68609;SHT31;55581;46.718;7.690;2023-02-28T00:08:59;0.53;74.42
68609;SHT31;55581;46.718;7.690;2023-02-28T00:11:27;0.44;74.36
68609;SHT31;55581;46.718;7.690;2023-02-28T00:13:52;0.44;74.36
68609;SHT31;55581;46.718;7.690;2023-02-28T00:16:20;0.43;74.50
68609;SHT31;55581;46.718;7.690;2023-02-28T00:18:46;0.40;75.34
68609;SHT31;55581;46.718;7.690;2023-02-28T00:21:16;0.53;74.57
68609;SHT31;55581;46.718;7.690;2023-02-28T00:23:41;0.44;74.82
68609;SHT31;55581;46.718;7.690;2023-02-28T00:26:07;0.42;74.16
68609;SHT31;55581;46.718;7.690;2023-02-28T00:28:32;0.40;74.41
68609;SHT31;55581;46.718;7.690;2023-02-28T00:30:58;0.44;74.31
68609;SHT31;55581;46.718;7.690;2023-02-28T00:33:26;0.39;73.91
68609;SHT31;55581;46.718;7.690;2023-02-28T00:35:52;0.39;74.16
68609;SHT31;55581;46.718;7.690;2023-02-28T00:38:25;0.33;73.70
68609;SHT31;55581;46.718;7.690;2023-02-28T00:40:53;0.33;74.35
68609;SHT31;55581;46.718;7.690;2023-02-28T00:43:18;0.29;74.27
68609;SHT31;55581;46.718;7.690;2023-02-28T00:45:43;0.26;74.27
68609;SHT31;55581;46.718;7.690;2023-02-28T00:48:09;0.27;74.38
68609;SHT31;55581;46.718;7.690;2023-02-28T00:50:34;0.29;74.37
68609;SHT31;55581;46.718;7.690;2023-02-28T00:53:00;0.22;74.58
68609;SHT31;55581;46.718;7.690;2023-02-28T00:55:25;0.30;74.58
68609;SHT31;55581;46.718;7.690;2023-02-28T00:57:50;0.34;74.32
68609;SHT31;55581;46.718;7.690;2023-02-28T01:00:16;0.30;74.58
68609;SHT31;55581;46.718;7.690;2023-02-28T01:02:44;0.33;74.28
68609;SHT31;55581;46.718;7.690;2023-02-28T01:05:09;0.32;75.14
68609;SHT31;55581;46.718;7.690;2023-02-28T01:07:35;0.26;75.31
68609;SHT31;55581;46.718;7.690;2023-02-28T01:10:00;0.34;74.33
68609;SHT31;55581;46.718;7.690;2023-02-28T01:12:25;0.29;74.09
68609;SHT31;55581;46.718;7.690;2023-02-28T01:14:53;0.22;74.65
68609;SHT31;55581;46.718;7.690;2023-02-28T01:17:18;0.19;73.82
68609;SHT31;55581;46.718;7.690;2023-02-28T01:19:44;0.06;74.38
68609;SHT31;55581;46.718;7.690;2023-02-28T01:22:09;0.03;75.19
68609;SHT31;55581;46.718;7.690;2023-02-28T01:24:35;0.06;75.11
68609;SHT31;55581;46.718;7.690;2023-02-28T01:27:00;0.08;74.69
68609;SHT31;55581;46.718;7.690;2023-02-28T01:29:25;0.09;74.31
68609;SHT31;55581;46.718;7.690;2023-02-28T01:31:51;0.08;74.53
68609;SHT31;55581;46.718;7.690;2023-02-28T01:34:16;0.13;74.52
68609;SHT31;55581;46.718;7.690;2023-02-28T01:36:46;0.19;74.23
68609;SHT31;55581;46.718;7.690;2023-02-28T01:39:14;0.16;73.93
68609;SHT31;55581;46.718;7.690;2023-02-28T01:41:39;0.22;74.27
68609;SHT31;55581;46.718;7.690;2023-02-28T01:44:53;0.20;74.53
68609;SHT31;55581;46.718;7.690;2023-02-28T01:46:54;0.22;73.53
68609;SHT31;55581;46.718;7.690;2023-02-28T01:49:20;0.20;73.58
68609;SHT31;55581;46.718;7.690;2023-02-28T01:51:53;0.16;73.78
68609;SHT31;55581;46.718;7.690;2023-02-28T01:54:29;0.22;73.64
68609;SHT31;55581;46.718;7.690;2023-02-28T01:57:01;0.26;73.69
68609;SHT31;55581;46.718;7.690;2023-02-28T01:59:36;0.22;73.78
68609;SHT31;55581;46.718;7.690;2023-02-28T02:02:06;0.27;73.74
68609;SHT31;55581;46.718;7.690;2023-02-28T02:05:10;0.13;74.37
68609;SHT31;55581;46.718;7.690;2023-02-28T02:07:42;0.20;74.52
68609;SHT31;55581;46.718;7.690;2023-02-28T02:10:19;0.19;74.11
68609;SHT31;55581;46.718;7.690;2023-02-28T02:15:52;0.13;74.57
68609;SHT31;55581;46.718;7.690;2023-02-28T02:18:52;0.17;74.73
68609;SHT31;55581;46.718;7.690;2023-02-28T02:24:03;0.27;75.23
68609;SHT31;55581;46.718;7.690;2023-02-28T02:37:24;0.06;74.81
68609;SHT31;55581;46.718;7.690;2023-02-28T02:40:00;0.13;74.94
68609;SHT31;55581;46.718;7.690;2023-02-28T02:42:35;0.09;75.00
68609;SHT31;55581;46.718;7.690;2023-02-28T02:45:07;0.08;75.03
68609;SHT31;55581;46.718;7.690;2023-02-28T02:47:35;0.06;75.21
68609;SHT31;55581;46.718;7.690;2023-02-28T02:50:05;0.05;75.45
68609;SHT31;55581;46.718;7.690;2023-02-28T02:52:44;0.12;75.34
68609;SHT31;55581;46.718;7.690;2023-02-28T02:55:13;0.13;75.25
68609;SHT31;55581;46.718;7.690;2023-02-28T02:57:48;0.19;75.43
68609;SHT31;55581;46.718;7.690;2023-02-28T03:00:17;0.12;74.74
68609;SHT31;55581;46.718;7.690;2023-02-28T03:02:47;0.08;75.79
68609;SHT31;55581;46.718;7.690;2023-02-28T03:05:20;0.13;76.11
68609;SHT31;55581;46.718;7.690;2023-02-28T03:07:48;0.12;75.86
68609;SHT31;55581;46.718;7.690;2023-02-28T03:10:34;0.12;76.04
68609;SHT31;55581;46.718;7.690;2023-02-28T03:21:16;0.06;76.71
68609;SHT31;55581;46.718;7.690;2023-02-28T03:23:53;0.05;76.68
68609;SHT31;55581;46.718;7.690;2023-02-28T03:26:24;0.08;76.45
68609;SHT31;55581;46.718;7.690;2023-02-28T03:29:08;0.02;76.10
68609;SHT31;55581;46.718;7.690;2023-02-28T03:34:33;-0.06;76.34
68609;SHT31;55581;46.718;7.690;2023-02-28T03:37:04;-0.11;76.40
68609;SHT31;55581;46.718;7.690;2023-02-28T03:40:33;-0.13;76.60
68609;SHT31;55581;46.718;7.690;2023-02-28T03:42:29;-0.26;76.53
68609;SHT31;55581;46.718;7.690;2023-02-28T03:44:59;-0.30;77.19
68609;SHT31;55581;46.718;7.690;2023-02-28T03:47:30;-0.25;77.41
68609;SHT31;55581;46.718;7.690;2023-02-28T03:50:05;-0.18;76.41
68609;SHT31;55581;46.718;7.690;2023-02-28T03:52:38;-0.16;76.72
68609;SHT31;55581;46.718;7.690;2023-02-28T03:55:10;-0.15;76.32
68609;SHT31;55581;46.718;7.690;2023-02-28T03:57:47;-0.09;76.30
68609;SHT31;55581;46.718;7.690;2023-02-28T04:00:21;-0.06;75.99
68609;SHT31;55581;46.718;7.690;2023-02-28T04:02:50;-0.01;76.34
68609;SHT31;55581;46.718;7.690;2023-02-28T04:05:19;-0.02;75.79
68609;SHT31;55581;46.718;7.690;2023-02-28T04:07:44;-0.03;76.02
68609;SHT31;55581;46.718;7.690;2023-02-28T04:10:11;-0.08;75.84
68609;SHT31;55581;46.718;7.690;2023-02-28T04:12:36;-0.08;76.60
68609;SHT31;55581;46.718;7.690;2023-02-28T04:15:07;-0.18;76.52
68609;SHT31;55581;46.718;7.690;2023-02-28T04:17:33;-0.09;76.75
68609;SHT31;55581;46.718;7.690;2023-02-28T04:19:58;-0.11;76.46
68609;SHT31;55581;46.718;7.690;2023-02-28T04:22:24;-0.11;76.45
68609;SHT31;55581;46.718;7.690;2023-02-28T04:24:52;-0.12;76.35
68609;SHT31;55581;46.718;7.690;2023-02-28T04:27:20;-0.08;76.51
68609;SHT31;55581;46.718;7.690;2023-02-28T04:29:46;-0.13;76.73
68609;SHT31;55581;46.718;7.690;2023-02-28T04:32:15;-0.02;76.79
68609;SHT31;55581;46.718;7.690;2023-02-28T04:34:41;-0.08;76.82
68609;SHT31;55581;46.718;7.690;2023-02-28T04:37:06;-0.05;76.54
68609;SHT31;55581;46.718;7.690;2023-02-28T04:39:35;-0.06;76.64
68609;SHT31;55581;46.718;7.690;2023-02-28T04:42:00;-0.13;77.13
68609;SHT31;55581;46.718;7.690;2023-02-28T04:44:26;-0.03;76.85
68609;SHT31;55581;46.718;7.690;2023-02-28T04:46:51;-0.01;76.79
68609;SHT31;55581;46.718;7.690;2023-02-28T04:49:16;0.05;76.98
68609;SHT31;55581;46.718;7.690;2023-02-28T04:51:42;0.09;76.25
68609;SHT31;55581;46.718;7.690;2023-02-28T04:54:07;0.03;76.51
68609;SHT31;55581;46.718;7.690;2023-02-28T04:56:34;0.03;76.56
68609;SHT31;55581;46.718;7.690;2023-02-28T04:58:59;0.01;76.58
68609;SHT31;55581;46.718;7.690;2023-02-28T05:03:53;0.02;77.36
68609;SHT31;55581;46.718;7.690;2023-02-28T05:06:19;0.03;77.75
68609;SHT31;55581;46.718;7.690;2023-02-28T05:08:46;0.05;77.25
68609;SHT31;55581;46.718;7.690;2023-02-28T05:11:21;0.03;77.03
68609;SHT31;55581;46.718;7.690;2023-02-28T05:13:51;0.09;77.05
68609;SHT31;55581;46.718;7.690;2023-02-28T05:16:19;0.06;76.64
68609;SHT31;55581;46.718;7.690;2023-02-28T05:18:44;0.06;76.89
68609;SHT31;55581;46.718;7.690;2023-02-28T05:21:31;0.10;76.49
68609;SHT31;55581;46.718;7.690;2023-02-28T05:23:59;0.16;76.76
68609;SHT31;55581;46.718;7.690;2023-02-28T05:26:28;0.19;76.14
68609;SHT31;55581;46.718;7.690;2023-02-28T05:28:54;0.27;75.74
68609;SHT31;55581;46.718;7.690;2023-02-28T05:31:20;0.26;75.93
68609;SHT31;55581;46.718;7.690;2023-02-28T05:33:45;0.29;76.24
68609;SHT31;55581;46.718;7.690;2023-02-28T05:36:11;0.22;75.37
68609;SHT31;55581;46.718;7.690;2023-02-28T05:38:39;0.13;76.23
68609;SHT31;55581;46.718;7.690;2023-02-28T05:41:08;0.13;76.10
68609;SHT31;55581;46.718;7.690;2023-02-28T05:43:35;0.16;76.49
68609;SHT31;55581;46.718;7.690;2023-02-28T05:46:05;0.16;76.28
68609;SHT31;55581;46.718;7.690;2023-02-28T05:48:32;0.17;76.01
68609;SHT31;55581;46.718;7.690;2023-02-28T05:50:57;0.20;76.25
68609;SHT31;55581;46.718;7.690;2023-02-28T05:53:23;0.29;75.75
68609;SHT31;55581;46.718;7.690;2023-02-28T05:55:51;0.23;75.56
68609;SHT31;55581;46.718;7.690;2023-02-28T05:58:16;0.17;75.89
68609;SHT31;55581;46.718;7.690;2023-02-28T06:00:42;0.13;76.51
68609;SHT31;55581;46.718;7.690;2023-02-28T06:03:07;0.15;75.83
68609;SHT31;55581;46.718;7.690;2023-02-28T06:05:33;0.16;75.79
68609;SHT31;55581;46.718;7.690;2023-02-28T06:08:00;0.12;75.57
68609;SHT31;55581;46.718;7.690;2023-02-28T06:10:26;0.08;75.72
68609;SHT31;55581;46.718;7.690;2023-02-28T06:12:51;0.03;75.46
68609;SHT31;55581;46.718;7.690;2023-02-28T06:15:17;-0.06;76.40
68609;SHT31;55581;46.718;7.690;2023-02-28T06:17:43;-0.02;76.48
68609;SHT31;55581;46.718;7.690;2023-02-28T06:20:10;-0.02;76.14
68609;SHT31;55581;46.718;7.690;2023-02-28T06:22:36;0.01;76.02
68609;SHT31;55581;46.718;7.690;2023-02-28T06:25:05;0.02;75.65
68609;SHT31;55581;46.718;7.690;2023-02-28T06:27:32;-0.05;75.85
68609;SHT31;55581;46.718;7.690;2023-02-28T06:29:58;-0.06;75.77
68609;SHT31;55581;46.718;7.690;2023-02-28T06:32:24;-0.03;76.20
68609;SHT31;55581;46.718;7.690;2023-02-28T06:34:52;-0.08;76.13
68609;SHT31;55581;46.718;7.690;2023-02-28T06:37:18;-0.05;76.26
68609;SHT31;55581;46.718;7.690;2023-02-28T06:39:44;-0.02;76.08
68609;SHT31;55581;46.718;7.690;2023-02-28T06:42:09;0.02;75.52
68609;SHT31;55581;46.718;7.690;2023-02-28T06:44:34;0.08;75.64
68609;SHT31;55581;46.718;7.690;2023-02-28T06:47:04;0.08;75.30
68609;SHT31;55581;46.718;7.690;2023-02-28T06:49:34;0.03;75.40
68609;SHT31;55581;46.718;7.690;2023-02-28T06:52:01;0.05;75.81
68609;SHT31;55581;46.718;7.690;2023-02-28T06:54:26;0.09;75.79
68609;SHT31;55581;46.718;7.690;2023-02-28T06:56:52;0.16;75.96
68609;SHT31;55581;46.718;7.690;2023-02-28T06:59:19;0.17;76.24
68609;SHT31;55581;46.718;7.690;2023-02-28T07:01:45;0.29;75.32
68609;SHT31;55581;46.718;7.690;2023-02-28T07:04:10;0.34;75.07
68609;SHT31;55581;46.718;7.690;2023-02-28T07:06:36;0.32;74.90
68609;SHT31;55581;46.718;7.690;2023-02-28T07:09:01;0.33;74.67
68609;SHT31;55581;46.718;7.690;2023-02-28T07:11:27;0.22;74.96
68609;SHT31;55581;46.718;7.690;2023-02-28T07:13:57;0.25;74.85
68609;SHT31;55581;46.718;7.690;2023-02-28T07:16:24;0.23;74.85
68609;SHT31;55581;46.718;7.690;2023-02-28T07:18:52;0.32;74.95
68609;SHT31;55581;46.718;7.690;2023-02-28T07:21:18;0.36;74.92
68609;SHT31;55581;46.718;7.690;2023-02-28T07:23:43;0.34;75.34
68609;SHT31;55581;46.718;7.690;2023-02-28T07:26:15;0.22;75.40
68609;SHT31;55581;46.718;7.690;2023-02-28T07:28:44;0.30;75.91
68609;SHT31;55581;46.718;7.690;2023-02-28T07:31:15;0.33;76.37
68609;SHT31;55581;46.718;7.690;2023-02-28T07:33:41;0.30;76.48
68609;SHT31;55581;46.718;7.690;2023-02-28T07:36:09;0.27;75.87
68609;SHT31;55581;46.718;7.690;2023-02-28T07:38:39;0.39;75.43
68609;SHT31;55581;46.718;7.690;2023-02-28T07:41:04;0.40;75.97
68609;SHT31;55581;46.718;7.690;2023-02-28T07:43:30;0.44;75.81
68609;SHT31;55581;46.718;7.690;2023-02-28T07:46:08;0.52;75.25
68609;SHT31;55581;46.718;7.690;2023-02-28T07:48:33;0.44;75.03
68609;SHT31;55581;46.718;7.690;2023-02-28T07:50:59;0.42;75.58
68609;SHT31;55581;46.718;7.690;2023-02-28T07:53:26;0.40;75.49
68609;SHT31;55581;46.718;7.690;2023-02-28T07:55:55;0.50;75.62
68609;SHT31;55581;46.718;7.690;2023-02-28T07:58:20;0.60;75.41
68609;SHT31;55581;46.718;7.690;2023-02-28T08:00:46;0.70;74.92
68609;SHT31;55581;46.718;7.690;2023-02-28T08:03:12;0.72;74.25
68609;SHT31;55581;46.718;7.690;2023-02-28T08:05:41;0.63;74.09
68609;SHT31;55581;46.718;7.690;2023-02-28T08:08:09;0.74;74.16
68609;SHT31;55581;46.718;7.690;2023-02-28T08:10:35;0.78;73.48
68609;SHT31;55581;46.718;7.690;2023-02-28T08:13:03;0.85;73.43
68609;SHT31;55581;46.718;7.690;2023-02-28T08:15:29;0.91;73.30
68609;SHT31;55581;46.718;7.690;2023-02-28T08:17:57;0.92;72.85
68609;SHT31;55581;46.718;7.690;2023-02-28T08:20:24;0.96;72.91
68609;SHT31;55581;46.718;7.690;2023-02-28T08:22:50;1.09;72.79
68609;SHT31;55581;46.718;7.690;2023-02-28T08:25:16;1.26;72.65
68609;SHT31;55581;46.718;7.690;2023-02-28T08:27:41;1.30;71.74
68609;SHT31;55581;46.718;7.690;2023-02-28T08:30:11;1.30;71.82
68609;SHT31;55581;46.718;7.690;2023-02-28T08:32:39;1.37;71.98
68609;SHT31;55581;46.718;7.690;2023-02-28T08:35:05;1.40;71.58
68609;SHT31;55581;46.718;7.690;2023-02-28T08:37:30;1.26;71.66
68609;SHT31;55581;46.718;7.690;2023-02-28T08:39:56;1.30;71.79
68609;SHT31;55581;46.718;7.690;2023-02-28T08:42:22;1.35;71.78
68609;SHT31;55581;46.718;7.690;2023-02-28T08:44:48;1.35;71.54
68609;SHT31;55581;46.718;7.690;2023-02-28T08:47:14;1.40;71.41
68609;SHT31;55581;46.718;7.690;2023-02-28T08:49:39;1.44;71.24
68609;SHT31;55581;46.718;7.690;2023-02-28T08:52:05;1.35;71.58
68609;SHT31;55581;46.718;7.690;2023-02-28T08:54:33;1.43;71.77
68609;SHT31;55581;46.718;7.690;2023-02-28T08:56:59;1.61;71.31
68609;SHT31;55581;46.718;7.690;2023-02-28T08:59:25;1.37;71.21
68609;SHT31;55581;46.718;7.690;2023-02-28T09:01:50;1.51;71.45
68609;SHT31;55581;46.718;7.690;2023-02-28T09:04:20;1.70;70.51
68609;SHT31;55581;46.718;7.690;2023-02-28T09:06:45;1.73;71.38
68609;SHT31;55581;46.718;7.690;2023-02-28T09:09:11;1.65;70.14
68609;SHT31;55581;46.718;7.690;2023-02-28T09:11:41;1.99;70.70
68609;SHT31;55581;46.718;7.690;2023-02-28T09:14:06;2.08;69.48
68609;SHT31;55581;46.718;7.690;2023-02-28T09:16:33;2.20;69.05
68609;SHT31;55581;46.718;7.690;2023-02-28T09:18:59;2.32;69.40
68609;SHT31;55581;46.718;7.690;2023-02-28T09:21:24;2.46;68.38
68609;SHT31;55581;46.718;7.690;2023-02-28T09:23:50;2.57;66.82
68609;SHT31;55581;46.718;7.690;2023-02-28T09:26:24;2.57;67.75
68609;SHT31;55581;46.718;7.690;2023-02-28T09:28:50;2.60;67.78
68609;SHT31;55581;46.718;7.690;2023-02-28T09:31:19;2.73;67.25
68609;SHT31;55581;46.718;7.690;2023-02-28T09:33:49;3.01;66.75
68609;SHT31;55581;46.718;7.690;2023-02-28T09:36:15;3.26;65.83
68609;SHT31;55581;46.718;7.690;2023-02-28T09:38:43;3.46;65.37
68609;SHT31;55581;46.718;7.690;2023-02-28T09:41:14;3.33;65.23
68609;SHT31;55581;46.718;7.690;2023-02-28T09:43:45;3.24;64.30
68609;SHT31;55581;46.718;7.690;2023-02-28T09:46:21;3.66;64.35
68609;SHT31;55581;46.718;7.690;2023-02-28T09:48:51;3.73;66.30
68609;SHT31;55581;46.718;7.690;2023-02-28T09:54:14;3.85;65.44
68609;SHT31;55581;46.718;7.690;2023-02-28T09:56:47;3.87;64.14
68609;SHT31;55581;46.718;7.690;2023-02-28T10:05:28;4.36;64.23
68609;SHT31;55581;46.718;7.690;2023-02-28T10:10:05;4.39;63.16
68609;SHT31;55581;46.718;7.690;2023-02-28T10:12:35;4.60;64.14
68609;SHT31;55581;46.718;7.690;2023-02-28T10:15:04;4.67;63.02
68609;SHT31;55581;46.718;7.690;2023-02-28T10:17:39;4.78;62.93
68609;SHT31;55581;46.718;7.690;2023-02-28T10:20:19;4.63;60.77
68609;SHT31;55581;46.718;7.690;2023-02-28T10:25:37;4.39;61.50
68609;SHT31;55581;46.718;7.690;2023-02-28T10:28:13;4.50;62.19
68609;SHT31;55581;46.718;7.690;2023-02-28T10:30:48;4.49;62.48
68609;SHT31;55581;46.718;7.690;2023-02-28T10:33:28;4.60;61.86
68609;SHT31;55581;46.718;7.690;2023-02-28T10:35:54;4.74;61.77
68609;SHT31;55581;46.718;7.690;2023-02-28T10:38:34;4.72;60.52
68609;SHT31;55581;46.718;7.690;2023-02-28T10:41:29;4.75;60.78
68609;SHT31;55581;46.718;7.690;2023-02-28T10:44:13;4.93;59.63
68609;SHT31;55581;46.718;7.690;2023-02-28T10:46:40;4.89;60.64
68609;SHT31;55581;46.718;7.690;2023-02-28T10:49:13;4.96;60.54
68609;SHT31;55581;46.718;7.690;2023-02-28T10:51:40;5.11;58.96
68609;SHT31;55581;46.718;7.690;2023-02-28T10:54:15;4.87;59.35
68609;SHT31;55581;46.718;7.690;2023-02-28T10:56:40;4.91;60.35
68609;SHT31;55581;46.718;7.690;2023-02-28T10:59:27;4.81;58.22
68609;SHT31;55581;46.718;7.690;2023-02-28T11:01:56;4.57;59.60
68609;SHT31;55581;46.718;7.690;2023-02-28T11:07:20;4.87;59.82
68609;SHT31;55581;46.718;7.690;2023-02-28T11:09:49;4.92;59.22
68609;SHT31;55581;46.718;7.690;2023-02-28T11:14:57;5.05;58.46
68609;SHT31;55581;46.718;7.690;2023-02-28T11:17:29;5.22;57.81
68609;SHT31;55581;46.718;7.690;2023-02-28T11:20:04;4.96;58.97
68609;SHT31;55581;46.718;7.690;2023-02-28T11:22:35;5.07;59.29
68609;SHT31;55581;46.718;7.690;2023-02-28T11:25:09;5.32;58.79
68609;SHT31;55581;46.718;7.690;2023-02-28T11:27:56;5.57;59.91
68609;SHT31;55581;46.718;7.690;2023-02-28T11:33:29;5.44;57.99
68609;SHT31;55581;46.718;7.690;2023-02-28T11:35:59;5.61;58.66
68609;SHT31;55581;46.718;7.690;2023-02-28T11:38:26;5.58;58.13
68609;SHT31;55581;46.718;7.690;2023-02-28T11:55:45;5.13;57.75
68609;SHT31;55581;46.718;7.690;2023-02-28T12:01:23;5.42;56.89
68609;SHT31;55581;46.718;7.690;2023-02-28T12:07:14;5.75;56.02
68609;SHT31;55581;46.718;7.690;2023-02-28T12:13:12;5.58;56.21
68609;SHT31;55581;46.718;7.690;2023-02-28T12:16:13;5.99;58.51
68609;SHT31;55581;46.718;7.690;2023-02-28T12:19:06;6.15;56.24
68609;SHT31;55581;46.718;7.690;2023-02-28T12:26:49;6.28;56.88
68609;SHT31;55581;46.718;7.690;2023-02-28T12:29:26;6.43;55.90
68609;SHT31;55581;46.718;7.690;2023-02-28T12:32:19;6.63;56.72
68609;SHT31;55581;46.718;7.690;2023-02-28T12:34:56;6.70;55.83
68609;SHT31;55581;46.718;7.690;2023-02-28T12:37:33;6.92;55.46
68609;SHT31;55581;46.718;7.690;2023-02-28T12:40:11;6.88;55.91
68609;SHT31;55581;46.718;7.690;2023-02-28T12:42:44;6.77;55.40
68609;SHT31;55581;46.718;7.690;2023-02-28T12:45:22;6.73;55.14
68609;SHT31;55581;46.718;7.690;2023-02-28T12:47:55;6.74;55.94
68609;SHT31;55581;46.718;7.690;2023-02-28T12:50:22;6.74;56.48
68609;SHT31;55581;46.718;7.690;2023-02-28T12:53:26;6.85;54.89
68609;SHT31;55581;46.718;7.690;2023-02-28T13:09:40;6.47;56.36
68609;SHT31;55581;46.718;7.690;2023-02-28T13:12:15;6.53;56.14
68609;SHT31;55581;46.718;7.690;2023-02-28T13:14:42;6.60;57.29
68609;SHT31;55581;46.718;7.690;2023-02-28T13:19:40;6.91;56.71
68609;SHT31;55581;46.718;7.690;2023-02-28T13:22:20;7.18;55.43
68609;SHT31;55581;46.718;7.690;2023-02-28T13:25:00;7.01;56.32
68609;SHT31;55581;46.718;7.690;2023-02-28T13:27:39;6.84;55.35
68609;SHT31;55581;46.718;7.690;2023-02-28T13:38:56;6.74;56.41
68609;SHT31;55581;46.718;7.690;2023-02-28T13:44:08;6.54;56.99
68609;SHT31;55581;46.718;7.690;2023-02-28T13:55:13;6.77;57.31
68609;SHT31;55581;46.718;7.690;2023-02-28T13:57:57;6.83;56.59
68609;SHT31;55581;46.718;7.690;2023-02-28T14:05:34;6.26;58.29
68609;SHT31;55581;46.718;7.690;2023-02-28T14:08:07;6.23;57.69
68609;SHT31;55581;46.718;7.690;2023-02-28T14:10:47;6.29;58.71
68609;SHT31;55581;46.718;7.690;2023-02-28T14:13:42;6.50;58.47
68609;SHT31;55581;46.718;7.690;2023-02-28T14:16:14;6.49;58.04
68609;SHT31;55581;46.718;7.690;2023-02-28T14:18:42;6.41;57.53
68609;SHT31;55581;46.718;7.690;2023-02-28T14:21:34;6.20;58.29
68609;SHT31;55581;46.718;7.690;2023-02-28T14:26:32;6.19;58.73
68609;SHT31;55581;46.718;7.690;2023-02-28T14:34:41;5.61;58.87
68609;SHT31;55581;46.718;7.690;2023-02-28T14:37:18;5.39;61.16
68609;SHT31;55581;46.718;7.690;2023-02-28T14:39:44;5.11;61.78
68609;SHT31;55581;46.718;7.690;2023-02-28T14:42:37;5.07;61.21
68609;SHT31;55581;46.718;7.690;2023-02-28T14:45:18;4.80;62.67
68609;SHT31;55581;46.718;7.690;2023-02-28T14:47:43;4.71;63.69
68609;SHT31;55581;46.718;7.690;2023-02-28T14:50:21;4.42;63.64
68609;SHT31;55581;46.718;7.690;2023-02-28T14:52:47;4.33;65.29
68609;SHT31;55581;46.718;7.690;2023-02-28T14:55:17;4.40;64.83
68609;SHT31;55581;46.718;7.690;2023-02-28T14:58:03;4.40;64.64
68609;SHT31;55581;46.718;7.690;2023-02-28T15:00:36;4.15;64.55
68609;SHT31;55581;46.718;7.690;2023-02-28T15:03:39;4.05;65.37
68609;SHT31;55581;46.718;7.690;2023-02-28T15:06:06;3.99;65.27
68609;SHT31;55581;46.718;7.690;2023-02-28T15:08:39;3.98;66.19
68609;SHT31;55581;46.718;7.690;2023-02-28T15:13:59;4.08;65.17
68609;SHT31;55581;46.718;7.690;2023-02-28T15:16:39;4.08;64.81
68609;SHT31;55581;46.718;7.690;2023-02-28T15:19:22;4.12;64.01
68609;SHT31;55581;46.718;7.690;2023-02-28T15:21:52;4.06;64.83
68609;SHT31;55581;46.718;7.690;2023-02-28T15:24:43;4.01;65.81
68609;SHT31;55581;46.718;7.690;2023-02-28T15:27:14;4.08;65.85
68609;SHT31;55581;46.718;7.690;2023-02-28T15:29:46;4.03;65.56
68609;SHT31;55581;46.718;7.690;2023-02-28T15:32:40;4.01;65.04
68609;SHT31;55581;46.718;7.690;2023-02-28T15:38:13;3.94;66.21
68609;SHT31;55581;46.718;7.690;2023-02-28T15:40:45;3.95;66.26
68609;SHT31;55581;46.718;7.690;2023-02-28T15:43:32;3.97;66.41
68609;SHT31;55581;46.718;7.690;2023-02-28T15:51:05;3.75;67.64
68609;SHT31;55581;46.718;7.690;2023-02-28T15:53:45;3.70;67.26
68609;SHT31;55581;46.718;7.690;2023-02-28T15:56:25;3.79;66.65
68609;SHT31;55581;46.718;7.690;2023-02-28T15:58:59;3.61;67.60
68609;SHT31;55581;46.718;7.690;2023-02-28T16:01:29;3.37;67.56
68609;SHT31;55581;46.718;7.690;2023-02-28T16:04:01;3.40;68.31
68609;SHT31;55581;46.718;7.690;2023-02-28T16:06:38;3.57;67.84
68609;SHT31;55581;46.718;7.690;2023-02-28T16:09:10;3.43;67.98
68609;SHT31;55581;46.718;7.690;2023-02-28T16:11:39;3.40;68.06
68609;SHT31;55581;46.718;7.690;2023-02-28T16:14:12;3.24;68.29
68609;SHT31;55581;46.718;7.690;2023-02-28T16:16:42;3.26;68.87
68609;SHT31;55581;46.718;7.690;2023-02-28T16:19:09;3.22;68.54
68609;SHT31;55581;46.718;7.690;2023-02-28T16:21:37;3.24;68.65
68609;SHT31;55581;46.718;7.690;2023-02-28T16:24:02;3.26;69.32
68609;SHT31;55581;46.718;7.690;2023-02-28T16:26:28;3.24;68.53
68609;SHT31;55581;46.718;7.690;2023-02-28T16:28:55;3.18;68.66
68609;SHT31;55581;46.718;7.690;2023-02-28T16:31:21;3.12;68.93
68609;SHT31;55581;46.718;7.690;2023-02-28T16:33:46;3.09;69.51
68609;SHT31;55581;46.718;7.690;2023-02-28T16:36:21;3.04;70.28
68609;SHT31;55581;46.718;7.690;2023-02-28T16:38:50;2.99;69.48
68609;SHT31;55581;46.718;7.690;2023-02-28T16:41:21;2.84;70.23
68609;SHT31;55581;46.718;7.690;2023-02-28T16:43:53;2.81;69.23
68609;SHT31;55581;46.718;7.690;2023-02-28T16:46:24;2.71;70.19
68609;SHT31;55581;46.718;7.690;2023-02-28T16:48:50;2.68;70.37
68609;SHT31;55581;46.718;7.690;2023-02-28T16:51:17;2.60;70.87
68609;SHT31;55581;46.718;7.690;2023-02-28T16:53:43;2.56;70.45
68609;SHT31;55581;46.718;7.690;2023-02-28T16:56:20;2.67;70.81
68609;SHT31;55581;46.718;7.690;2023-02-28T16:58:46;2.65;70.85
68609;SHT31;55581;46.718;7.690;2023-02-28T17:01:11;2.67;71.17
68609;SHT31;55581;46.718;7.690;2023-02-28T17:03:37;2.62;70.57
68609;SHT31;55581;46.718;7.690;2023-02-28T17:06:04;2.51;70.56
68609;SHT31;55581;46.718;7.690;2023-02-28T17:08:30;2.36;71.42
68609;SHT31;55581;46.718;7.690;2023-02-28T17:10:57;2.39;71.54
68609;SHT31;55581;46.718;7.690;2023-02-28T17:13:23;2.32;71.89
68609;SHT31;55581;46.718;7.690;2023-02-28T17:15:48;2.34;71.02
68609;SHT31;55581;46.718;7.690;2023-02-28T17:18:15;2.34;71.47
68609;SHT31;55581;46.718;7.690;2023-02-28T17:20:44;2.30;72.07
68609;SHT31;55581;46.718;7.690;2023-02-28T17:23:09;2.34;71.89
68609;SHT31;55581;46.718;7.690;2023-02-28T17:25:35;2.39;72.00
68609;SHT31;55581;46.718;7.690;2023-02-28T17:28:00;2.43;71.79
68609;SHT31;55581;46.718;7.690;2023-02-28T17:30:26;2.29;72.28
68609;SHT31;55581;46.718;7.690;2023-02-28T17:32:56;2.33;71.98
68609;SHT31;55581;46.718;7.690;2023-02-28T17:35:24;2.30;72.42
68609;SHT31;55581;46.718;7.690;2023-02-28T17:37:49;2.28;73.79
68609;SHT31;55581;46.718;7.690;2023-02-28T17:40:20;2.29;72.25
68609;SHT31;55581;46.718;7.690;2023-02-28T17:42:46;2.28;72.03
68609;SHT31;55581;46.718;7.690;2023-02-28T17:45:15;2.23;72.04
68609;SHT31;55581;46.718;7.690;2023-02-28T17:47:43;2.13;72.81
68609;SHT31;55581;46.718;7.690;2023-02-28T17:50:14;2.25;71.92
68609;SHT31;55581;46.718;7.690;2023-02-28T17:52:40;2.18;72.60
68609;SHT31;55581;46.718;7.690;2023-02-28T17:55:05;2.13;72.39
68609;SHT31;55581;46.718;7.690;2023-02-28T17:57:34;2.15;73.32
68609;SHT31;55581;46.718;7.690;2023-02-28T18:00:03;2.05;72.67
68609;SHT31;55581;46.718;7.690;2023-02-28T18:02:32;1.98;73.19
68609;SHT31;55581;46.718;7.690;2023-02-28T18:04:57;2.03;73.03
68609;SHT31;55581;46.718;7.690;2023-02-28T18:07:25;2.01;72.91
68609;SHT31;55581;46.718;7.690;2023-02-28T18:09:50;2.05;72.70
68609;SHT31;55581;46.718;7.690;2023-02-28T18:12:16;2.05;73.07
68609;SHT31;55581;46.718;7.690;2023-02-28T18:14:41;2.02;73.60
68609;SHT31;55581;46.718;7.690;2023-02-28T18:17:09;2.01;73.27
68609;SHT31;55581;46.718;7.690;2023-02-28T18:19:35;1.98;73.58
68609;SHT31;55581;46.718;7.690;2023-02-28T18:22:00;1.95;73.82
68609;SHT31;55581;46.718;7.690;2023-02-28T18:24:26;1.92;73.00
68609;SHT31;55581;46.718;7.690;2023-02-28T18:26:51;1.88;74.08